Time;durP1;ratioP1;P1;durP2;ratioP2;P2;SDS_P1;SDS_P2;PMS_P1;PMS_P2;Temp;Humidity;BMP_temperature;BMP_pressure;BME280_temperature;BME280_humidity;BME280_pressure;Samples;Min_cycle;Max_cycle;Signal;HPM_P1;HPM_P2
2021/12/25 00:01:41;;;;;;;1.63;1.30;;;6.90;98.20;;;;;;5037796;28;20481;-77
2021/12/25 00:04:09;;;;;;;1.63;1.30;;;6.80;98.20;;;;;;5050974;28;20486;-74
2021/12/25 00:06:37;;;;;;;1.60;1.30;;;6.80;98.20;;;;;;5029838;28;20493;-75
2021/12/25 00:09:05;;;;;;;1.60;1.30;;;6.80;98.20;;;;;;5037679;28;20951;-76
2021/12/25 00:11:32;;;;;;;1.63;1.30;;;6.80;98.20;;;;;;5037806;28;20481;-77
2021/12/25 00:13:59;;;;;;;1.60;1.30;;;6.80;98.20;;;;;;5051865;28;20858;-76
2021/12/25 00:16:29;;;;;;;1.60;1.30;;;6.80;98.20;;;;;;5030775;28;20527;-76
2021/12/25 00:18:55;;;;;;;1.60;1.20;;;6.80;98.20;;;;;;5047978;28;20485;-77
2021/12/25 00:21:22;;;;;;;1.60;1.30;;;6.80;98.20;;;;;;5030663;28;20479;-75
2021/12/25 00:23:51;;;;;;;1.60;1.27;;;6.80;98.20;;;;;;5044281;28;20487;-76
2021/12/25 00:26:36;;;;;;;1.60;1.30;;;6.80;98.20;;;;;;5034408;28;20531;-75
2021/12/25 00:29:26;;;;;;;1.63;1.30;;;6.70;98.20;;;;;;5049570;28;20833;-74
2021/12/25 00:31:57;;;;;;;1.63;1.30;;;6.70;98.20;;;;;;5038065;28;20487;-77
2021/12/25 00:34:24;;;;;;;1.60;1.30;;;6.70;98.20;;;;;;5048319;28;20462;-75
2021/12/25 00:36:52;;;;;;;1.60;1.30;;;6.70;98.20;;;;;;5032011;28;20541;-77
2021/12/25 00:39:20;;;;;;;1.70;1.40;;;6.70;98.20;;;;;;5042293;28;20462;-76
2021/12/25 00:41:47;;;;;;;1.70;1.40;;;6.70;98.20;;;;;;5039278;28;20479;-76
2021/12/25 00:44:14;;;;;;;1.60;1.30;;;6.70;98.20;;;;;;5048962;28;20570;-77
2021/12/25 00:46:41;;;;;;;1.70;1.30;;;6.70;98.20;;;;;;5035817;28;20482;-76
2021/12/25 00:49:08;;;;;;;1.70;1.40;;;6.70;98.20;;;;;;5050635;28;20473;-77
2021/12/25 00:51:35;;;;;;;1.60;1.20;;;6.70;98.20;;;;;;5036129;28;20941;-77
2021/12/25 00:54:02;;;;;;;1.63;1.30;;;6.70;98.20;;;;;;5051550;28;20464;-75
2021/12/25 00:56:30;;;;;;;1.60;1.30;;;6.70;98.20;;;;;;5033449;28;21048;-77
2021/12/25 00:58:57;;;;;;;1.67;1.30;;;6.70;98.20;;;;;;5045606;28;21018;-77
2021/12/25 01:01:24;;;;;;;1.70;1.50;;;6.70;98.20;;;;;;5032946;28;20473;-77
2021/12/25 01:03:51;;;;;;;1.60;1.30;;;6.70;98.20;;;;;;5052819;28;21126;-77
2021/12/25 01:06:18;;;;;;;1.70;1.30;;;6.70;98.20;;;;;;5033359;28;20485;-77
2021/12/25 01:08:45;;;;;;;1.70;1.60;;;6.70;98.20;;;;;;5054882;28;20854;-76
2021/12/25 01:11:12;;;;;;;1.63;1.30;;;6.70;98.20;;;;;;5026982;28;20486;-76
2021/12/25 01:13:46;;;;;;;1.60;1.20;;;6.60;98.20;;;;;;5041827;28;20496;-74
2021/12/25 01:16:27;;;;;;;1.60;1.30;;;6.60;98.20;;;;;;5035950;28;20520;-78
2021/12/25 01:24:59;;;;;;;1.60;1.30;;;6.60;98.20;;;;;;5146162;27;20558;-73
2021/12/25 01:28:06;;;;;;;1.67;1.30;;;6.60;98.20;;;;;;5098412;27;20487;-74
2021/12/25 01:30:43;;;;;;;1.60;1.30;;;6.50;98.20;;;;;;5085543;28;20468;-73
2021/12/25 01:33:44;;;;;;;1.63;1.23;;;6.50;98.20;;;;;;5086131;28;20993;-75
2021/12/25 01:36:33;;;;;;;1.67;1.30;;;6.40;98.20;;;;;;5077437;28;20478;-73
2021/12/25 01:39:08;;;;;;;1.60;1.30;;;6.40;98.20;;;;;;5093231;28;21002;-75
2021/12/25 01:42:04;;;;;;;1.67;1.30;;;6.40;98.20;;;;;;5077261;28;20938;-75
2021/12/25 01:50:04;;;;;;;1.70;1.40;;;6.30;98.20;;;;;;5087182;28;20440;-74
2021/12/25 01:52:31;;;;;;;1.70;1.30;;;6.20;98.20;;;;;;5082449;28;20476;-76
2021/12/25 01:55:01;;;;;;;1.60;1.30;;;6.20;98.20;;;;;;5083726;28;20457;-76
2021/12/25 01:57:31;;;;;;;1.63;1.30;;;6.20;98.20;;;;;;5084023;28;20516;-75
2021/12/25 01:59:59;;;;;;;1.67;1.30;;;6.20;98.20;;;;;;5085071;28;20826;-76
2021/12/25 02:02:26;;;;;;;1.63;1.30;;;6.20;98.20;;;;;;5076705;28;20475;-74
2021/12/25 02:04:54;;;;;;;1.60;1.30;;;6.20;98.20;;;;;;5083280;28;20460;-74
2021/12/25 02:07:21;;;;;;;1.67;1.40;;;6.20;98.20;;;;;;5065594;28;20491;-75
2021/12/25 02:09:48;;;;;;;1.60;1.30;;;6.20;98.20;;;;;;5080046;28;20456;-75
2021/12/25 02:12:15;;;;;;;1.60;1.30;;;6.10;98.20;;;;;;5083802;28;20534;-76
2021/12/25 02:14:46;;;;;;;1.67;1.30;;;6.10;98.20;;;;;;5088077;28;20475;-75
2021/12/25 02:17:20;;;;;;;1.60;1.30;;;6.10;98.20;;;;;;5084270;28;20754;-74
2021/12/25 02:19:54;;;;;;;1.67;1.37;;;6.10;98.20;;;;;;5087468;28;20704;-74
2021/12/25 02:22:25;;;;;;;1.60;1.30;;;6.00;98.20;;;;;;5077169;28;20500;-74
2021/12/25 02:24:52;;;;;;;1.63;1.33;;;6.00;98.20;;;;;;5084804;28;20472;-75
2021/12/25 02:27:19;;;;;;;1.60;1.30;;;6.00;98.20;;;;;;5084069;28;20552;-74
2021/12/25 02:29:46;;;;;;;1.60;1.30;;;6.00;98.20;;;;;;5087177;28;21025;-75
2021/12/25 02:32:13;;;;;;;1.60;1.30;;;6.00;98.20;;;;;;5080285;28;21066;-76
2021/12/25 02:34:40;;;;;;;1.63;1.30;;;6.00;98.20;;;;;;5079264;28;20468;-75
2021/12/25 02:37:08;;;;;;;1.60;1.30;;;6.00;98.20;;;;;;5067222;28;20514;-76
2021/12/25 02:39:35;;;;;;;1.70;1.43;;;6.00;98.20;;;;;;5072916;28;20465;-76
2021/12/25 02:42:02;;;;;;;1.67;1.30;;;6.00;98.20;;;;;;5061882;28;21015;-75
2021/12/25 02:44:29;;;;;;;1.70;1.40;;;5.90;98.20;;;;;;5070860;28;20504;-75
2021/12/25 02:46:58;;;;;;;1.60;1.30;;;5.90;98.20;;;;;;5067380;28;20546;-75
2021/12/25 02:49:25;;;;;;;1.60;1.30;;;5.90;98.20;;;;;;5067796;28;20606;-76
2021/12/25 02:51:53;;;;;;;1.60;1.30;;;5.90;98.20;;;;;;5054045;28;20541;-76
2021/12/25 02:54:21;;;;;;;1.70;1.50;;;5.80;98.20;;;;;;5074719;28;20457;-75
2021/12/25 02:56:48;;;;;;;1.60;1.30;;;5.80;98.20;;;;;;5052310;28;21017;-75
2021/12/25 02:59:16;;;;;;;1.70;1.47;;;5.70;98.20;;;;;;5062905;28;20461;-76
2021/12/25 03:01:43;;;;;;;1.70;1.40;;;5.70;98.20;;;;;;5062889;28;20484;-75
2021/12/25 03:04:10;;;;;;;1.60;1.30;;;5.70;98.20;;;;;;5069684;28;20492;-76
2021/12/25 03:06:38;;;;;;;1.60;1.30;;;5.70;98.20;;;;;;5063705;28;20485;-75
2021/12/25 03:09:06;;;;;;;1.67;1.40;;;5.60;98.20;;;;;;5068846;28;20518;-74
2021/12/25 03:11:35;;;;;;;1.70;1.40;;;5.60;98.20;;;;;;5060865;28;20512;-77
2021/12/25 03:14:13;;;;;;;1.63;1.40;;;5.60;98.20;;;;;;5074896;28;20462;-76
2021/12/25 03:16:40;;;;;;;1.60;1.30;;;5.50;98.20;;;;;;5066338;28;20549;-75
2021/12/25 03:19:15;;;;;;;1.70;1.40;;;5.50;98.20;;;;;;5077201;28;20457;-76
2021/12/25 03:21:42;;;;;;;2.37;2.17;;;5.50;98.20;;;;;;5066017;28;20893;-76
2021/12/25 03:24:09;;;;;;;1.70;1.40;;;5.50;98.20;;;;;;5072773;28;21005;-76
2021/12/25 03:26:37;;;;;;;1.60;1.30;;;5.50;98.20;;;;;;5064041;28;20476;-76
2021/12/25 03:29:04;;;;;;;2.30;2.10;;;5.40;98.20;;;;;;5076667;28;20488;-76
2021/12/25 03:31:32;;;;;;;1.70;1.50;;;5.40;98.20;;;;;;5063015;28;20472;-75
2021/12/25 03:33:59;;;;;;;1.60;1.30;;;5.40;98.20;;;;;;5072308;28;20540;-75
2021/12/25 03:36:27;;;;;;;2.17;1.97;;;5.40;98.20;;;;;;5064711;28;20484;-72
2021/12/25 03:38:54;;;;;;;1.67;1.37;;;5.30;98.20;;;;;;5072813;28;20536;-74
2021/12/25 03:41:21;;;;;;;1.70;1.30;;;5.30;98.20;;;;;;5063983;28;20478;-74
2021/12/25 03:43:49;;;;;;;2.37;1.90;;;5.30;98.20;;;;;;5071081;28;20919;-75
2021/12/25 03:46:18;;;;;;;1.67;1.40;;;5.30;98.20;;;;;;5064824;28;20842;-74
2021/12/25 03:59:43;;;;;;;1.67;1.40;;;5.10;98.20;;;;;;5068321;28;20437;-76
2021/12/25 04:02:17;;;;;;;1.63;1.30;;;5.10;98.20;;;;;;5063348;28;20477;-73
2021/12/25 04:04:47;;;;;;;1.70;1.37;;;5.10;98.20;;;;;;5067763;28;20490;-74
2021/12/25 04:07:28;;;;;;;1.60;1.30;;;5.10;98.20;;;;;;5069452;28;20571;-74
2021/12/25 04:09:59;;;;;;;1.70;1.40;;;5.10;98.20;;;;;;5074043;28;20507;-74
2021/12/25 04:12:26;;;;;;;1.60;1.30;;;5.00;98.20;;;;;;5070336;28;20575;-77
2021/12/25 04:14:55;;;;;;;1.63;1.40;;;5.00;98.20;;;;;;5069288;28;20556;-75
2021/12/25 04:17:22;;;;;;;1.67;1.40;;;5.00;98.20;;;;;;5065789;28;20528;-76
2021/12/25 04:19:49;;;;;;;1.60;1.33;;;4.90;98.20;;;;;;5067879;28;20511;-74
2021/12/25 04:22:20;;;;;;;1.67;1.40;;;4.90;98.20;;;;;;5066176;28;20560;-77
2021/12/25 04:24:49;;;;;;;1.70;1.50;;;4.90;98.20;;;;;;5069360;28;20478;-74
2021/12/25 04:27:17;;;;;;;3.00;2.80;;;4.80;98.20;;;;;;5063254;28;20560;-75
2021/12/25 04:29:52;;;;;;;1.67;1.30;;;4.80;98.20;;;;;;5067695;28;20593;-75
2021/12/25 04:49:28;;;;;;;1.67;1.40;;;4.60;98.20;;;;;;5072410;28;20473;-75
2021/12/25 05:03:10;;;;;;;1.70;1.50;;;4.50;98.20;;;;;;5061736;28;20890;-72
2021/12/25 05:05:40;;;;;;;1.63;1.40;;;4.50;98.20;;;;;;5068051;28;20499;-75
2021/12/25 05:08:07;;;;;;;1.60;1.30;;;4.50;98.20;;;;;;5062064;28;20505;-74
2021/12/25 05:10:34;;;;;;;1.63;1.40;;;4.50;98.20;;;;;;5068463;28;20461;-74
2021/12/25 05:13:01;;;;;;;1.70;1.40;;;4.40;98.20;;;;;;5072901;28;20473;-71
2021/12/25 05:15:28;;;;;;;1.63;1.40;;;4.40;98.20;;;;;;5068642;28;20465;-76
2021/12/25 05:17:55;;;;;;;1.70;1.30;;;4.40;98.20;;;;;;5061230;28;20868;-73
2021/12/25 05:20:23;;;;;;;1.63;1.30;;;4.30;98.20;;;;;;5068361;28;20766;-77
2021/12/25 05:22:52;;;;;;;1.70;1.50;;;4.30;98.20;;;;;;5069747;28;20483;-73
2021/12/25 05:25:18;;;;;;;1.70;1.40;;;4.30;98.20;;;;;;5067373;28;20558;-76
2021/12/25 05:27:46;;;;;;;1.70;1.40;;;4.20;98.20;;;;;;5062616;28;20487;-75
2021/12/25 05:30:13;;;;;;;1.70;1.33;;;4.20;98.20;;;;;;5067947;28;20899;-74
2021/12/25 05:32:40;;;;;;;1.67;1.40;;;4.10;98.20;;;;;;5068059;28;20958;-72
2021/12/25 05:35:08;;;;;;;1.70;1.40;;;4.10;98.20;;;;;;5068531;28;20449;-75
2021/12/25 05:37:35;;;;;;;1.63;1.37;;;4.00;98.20;;;;;;5071576;28;20503;-76
2021/12/25 05:40:05;;;;;;;1.70;1.40;;;4.00;98.20;;;;;;5069273;28;20544;-74
2021/12/25 05:42:32;;;;;;;5.10;3.50;;;3.90;98.20;;;;;;5062108;28;20486;-75
2021/12/25 05:44:59;;;;;;;1.70;1.60;;;3.90;98.20;;;;;;5066912;28;20491;-76
2021/12/25 05:47:26;;;;;;;2.00;1.80;;;3.90;98.20;;;;;;5072160;28;20484;-74
2021/12/25 05:49:53;;;;;;;1.70;1.53;;;3.80;98.20;;;;;;5067047;28;20493;-76
2021/12/25 05:52:20;;;;;;;1.70;1.50;;;3.80;98.20;;;;;;5060050;28;20511;-74
2021/12/25 05:54:47;;;;;;;1.70;1.40;;;3.70;98.20;;;;;;5066130;28;20450;-75
2021/12/25 05:57:15;;;;;;;1.70;1.47;;;3.70;98.20;;;;;;5063717;28;20572;-73
2021/12/25 05:59:42;;;;;;;1.70;1.47;;;3.70;98.20;;;;;;5066492;28;20563;-74
2021/12/25 06:02:09;;;;;;;1.70;1.40;;;3.70;98.20;;;;;;5057914;28;20480;-74
2021/12/25 06:04:38;;;;;;;1.70;1.50;;;3.70;98.20;;;;;;5066369;28;20485;-72
2021/12/25 06:07:05;;;;;;;1.70;1.40;;;3.70;98.20;;;;;;5058818;28;20901;-72
2021/12/25 06:09:32;;;;;;;1.70;1.50;;;3.70;98.20;;;;;;5067420;28;21045;-74
2021/12/25 06:11:59;;;;;;;1.70;1.40;;;3.70;98.20;;;;;;5058994;28;20473;-77
2021/12/25 06:14:27;;;;;;;1.70;1.50;;;3.70;98.20;;;;;;5076124;28;20463;-75
2021/12/25 06:16:56;;;;;;;3.90;3.63;;;3.60;98.20;;;;;;5064594;28;20523;-75
2021/12/25 06:19:23;;;;;;;1.90;1.60;;;3.60;98.20;;;;;;5074769;28;20506;-75
2021/12/25 06:21:50;;;;;;;1.70;1.43;;;3.60;98.20;;;;;;5068395;28;20514;-73
2021/12/25 06:24:16;;;;;;;1.70;1.50;;;3.60;98.20;;;;;;5075548;28;20485;-77
2021/12/25 06:26:44;;;;;;;1.70;1.40;;;3.60;98.20;;;;;;5063969;28;20488;-74
2021/12/25 06:29:14;;;;;;;1.67;1.40;;;3.60;98.20;;;;;;5075403;28;20500;-75
2021/12/25 06:31:42;;;;;;;1.70;1.43;;;3.60;98.20;;;;;;5062524;28;21057;-74
2021/12/25 06:34:09;;;;;;;1.67;1.40;;;3.60;98.20;;;;;;5072617;28;20453;-75
2021/12/25 06:36:35;;;;;;;1.70;1.40;;;3.60;98.20;;;;;;5063811;28;20551;-74
2021/12/25 06:39:03;;;;;;;1.67;1.30;;;3.50;98.20;;;;;;5079565;28;20477;-72
2021/12/25 06:41:30;;;;;;;1.70;1.50;;;3.50;98.20;;;;;;5059451;28;20742;-76
2021/12/25 06:43:57;;;;;;;1.70;1.50;;;3.50;98.20;;;;;;5072036;28;20484;-72
2021/12/25 06:46:24;;;;;;;1.70;1.40;;;3.50;98.20;;;;;;5068661;28;20476;-73
2021/12/25 06:48:52;;;;;;;1.70;1.50;;;3.50;98.20;;;;;;5077974;28;20818;-76
2021/12/25 06:51:18;;;;;;;1.70;1.43;;;3.50;98.20;;;;;;5065261;28;20558;-75
2021/12/25 06:53:45;;;;;;;1.70;1.40;;;3.40;98.20;;;;;;5071563;28;20457;-73
2021/12/25 06:56:12;;;;;;;1.70;1.50;;;3.40;98.20;;;;;;5061439;28;21033;-76
2021/12/25 06:58:39;;;;;;;1.70;1.40;;;3.40;98.20;;;;;;5070416;28;20510;-75
2021/12/25 07:01:06;;;;;;;1.70;1.40;;;3.40;98.20;;;;;;5063538;28;21037;-77
2021/12/25 07:03:33;;;;;;;1.63;1.40;;;3.40;98.20;;;;;;5074645;28;20465;-74
2021/12/25 07:06:02;;;;;;;1.70;1.40;;;3.40;98.20;;;;;;5060266;28;20517;-75
2021/12/25 07:08:28;;;;;;;1.70;1.50;;;3.30;98.20;;;;;;5075541;28;20477;-74
2021/12/25 07:10:55;;;;;;;1.70;1.40;;;3.30;98.20;;;;;;5059291;28;20476;-73
2021/12/25 07:13:22;;;;;;;1.80;1.70;;;3.30;98.20;;;;;;5080726;28;20469;-76
2021/12/25 07:15:49;;;;;;;1.70;1.50;;;3.30;98.20;;;;;;5057124;28;20457;-73
2021/12/25 07:18:16;;;;;;;1.70;1.50;;;3.30;98.20;;;;;;5075916;28;20927;-71
2021/12/25 07:20:45;;;;;;;1.70;1.40;;;3.30;98.20;;;;;;5064873;28;20469;-78
2021/12/25 07:23:13;;;;;;;1.70;1.50;;;3.30;98.20;;;;;;5068205;28;20461;-74
2021/12/25 07:25:40;;;;;;;2.27;2.07;;;3.30;98.20;;;;;;5064546;28;20546;-74
2021/12/25 07:28:07;;;;;;;1.70;1.50;;;3.20;98.20;;;;;;5069305;28;20481;-75
2021/12/25 07:30:35;;;;;;;1.70;1.50;;;3.20;98.20;;;;;;5070599;28;20461;-76
2021/12/25 07:33:02;;;;;;;1.70;1.40;;;3.20;98.20;;;;;;5071446;28;20469;-74
2021/12/25 07:35:29;;;;;;;1.70;1.50;;;3.10;98.20;;;;;;5070434;28;20461;-75
2021/12/25 07:37:58;;;;;;;1.70;1.50;;;3.10;98.20;;;;;;5071316;28;20486;-76
2021/12/25 07:40:26;;;;;;;1.70;1.50;;;3.10;98.20;;;;;;5070973;28;20461;-74
2021/12/25 07:42:54;;;;;;;1.70;1.50;;;3.10;98.20;;;;;;5070208;28;20628;-74
2021/12/25 07:45:21;;;;;;;1.70;1.50;;;3.10;98.20;;;;;;5070674;28;20481;-75
2021/12/25 07:47:56;;;;;;;1.70;1.53;;;3.10;98.20;;;;;;5070462;28;21089;-76
2021/12/25 07:50:23;;;;;;;1.70;1.50;;;3.10;98.20;;;;;;5070634;28;20888;-75
2021/12/25 07:52:50;;;;;;;1.80;1.40;;;3.10;98.20;;;;;;5070171;28;20468;-75
2021/12/25 07:55:17;;;;;;;1.70;1.50;;;3.10;98.20;;;;;;5067815;28;20541;-76
2021/12/25 07:57:46;;;;;;;1.70;1.60;;;3.10;98.20;;;;;;5068824;28;20477;-75
2021/12/25 08:00:15;;;;;;;1.70;1.50;;;3.00;98.20;;;;;;5069258;28;20953;-75
2021/12/25 08:02:44;;;;;;;1.90;1.70;;;3.00;98.20;;;;;;5069329;28;20821;-72
2021/12/25 08:05:12;;;;;;;1.63;1.40;;;3.00;98.20;;;;;;5069991;28;20485;-74
2021/12/25 08:07:39;;;;;;;1.70;1.50;;;3.00;98.20;;;;;;5069753;28;20488;-77
2021/12/25 08:10:13;;;;;;;1.70;1.50;;;3.00;98.20;;;;;;5070416;28;20549;-75
2021/12/25 08:12:42;;;;;;;1.70;1.50;;;3.00;98.20;;;;;;5069778;28;20535;-71
2021/12/25 08:15:12;;;;;;;1.70;1.47;;;3.00;98.20;;;;;;5068508;28;20450;-75
2021/12/25 08:17:40;;;;;;;1.70;1.50;;;2.90;98.20;;;;;;5066467;28;20488;-74
2021/12/25 08:20:08;;;;;;;1.70;1.40;;;3.00;98.20;;;;;;5069927;28;20904;-74
2021/12/25 08:22:35;;;;;;;1.70;1.50;;;3.00;98.20;;;;;;5068707;28;20965;-75
2021/12/25 08:25:02;;;;;;;1.70;1.40;;;2.90;98.20;;;;;;5068165;28;20492;-75
2021/12/25 08:27:29;;;;;;;1.70;1.53;;;2.90;98.20;;;;;;5064905;28;20481;-75
2021/12/25 08:29:57;;;;;;;1.70;1.60;;;2.90;98.20;;;;;;5069782;28;20465;-73
2021/12/25 08:32:25;;;;;;;1.70;1.40;;;2.90;98.20;;;;;;5066769;28;20465;-73
2021/12/25 08:34:53;;;;;;;1.70;1.40;;;2.90;98.20;;;;;;5059762;28;20492;-73
2021/12/25 08:37:22;;;;;;;1.70;1.30;;;2.90;98.20;;;;;;5064752;28;20585;-74
2021/12/25 08:39:50;;;;;;;1.70;1.60;;;2.90;98.20;;;;;;5064809;28;20457;-75
2021/12/25 08:42:17;;;;;;;1.70;1.40;;;2.90;98.20;;;;;;5065582;28;20548;-74
2021/12/25 08:45:04;;;;;;;1.70;1.50;;;2.90;98.20;;;;;;5065901;28;20871;-74
2021/12/25 08:47:35;;;;;;;1.70;1.50;;;3.00;98.20;;;;;;5053544;28;20489;-73
2021/12/25 08:50:03;;;;;;;1.70;1.50;;;3.00;98.20;;;;;;5064160;28;20538;-71
2021/12/25 08:52:30;;;;;;;1.70;1.60;;;3.00;98.20;;;;;;5062201;28;20465;-71
2021/12/25 08:54:58;;;;;;;1.70;1.50;;;3.00;98.20;;;;;;5056445;28;20476;-71
2021/12/25 08:57:25;;;;;;;1.70;1.50;;;3.00;98.20;;;;;;5062039;28;20508;-72
2021/12/25 08:59:54;;;;;;;1.70;1.40;;;3.00;98.20;;;;;;5062926;28;20619;-73
2021/12/25 09:02:23;;;;;;;1.63;1.40;;;3.00;98.20;;;;;;5063374;28;20874;-72
2021/12/25 09:04:52;;;;;;;1.70;1.50;;;3.00;98.20;;;;;;5065840;28;20491;-75
2021/12/25 09:07:20;;;;;;;1.70;1.40;;;3.00;98.20;;;;;;5065836;28;20489;-77
2021/12/25 09:09:47;;;;;;;1.70;1.50;;;3.00;98.20;;;;;;5065926;28;20656;-75
2021/12/25 09:12:16;;;;;;;1.70;1.50;;;3.00;98.20;;;;;;5064763;28;20468;-74
2021/12/25 09:14:44;;;;;;;1.60;1.40;;;3.00;98.20;;;;;;5065190;28;20500;-72
2021/12/25 09:17:12;;;;;;;1.70;1.50;;;2.90;98.20;;;;;;5065514;28;20811;-72
2021/12/25 09:19:40;;;;;;;1.67;1.40;;;2.90;98.20;;;;;;5064629;28;20470;-71
2021/12/25 09:22:11;;;;;;;1.70;1.50;;;2.90;98.20;;;;;;5062796;28;20580;-71
2021/12/25 09:24:39;;;;;;;1.70;1.50;;;3.00;98.20;;;;;;5062314;28;20478;-71
2021/12/25 09:27:06;;;;;;;1.63;1.40;;;3.00;98.20;;;;;;5062642;28;20489;-70
2021/12/25 09:29:33;;;;;;;1.67;1.40;;;3.00;98.20;;;;;;5064762;28;20468;-71
2021/12/25 09:32:01;;;;;;;1.70;1.50;;;3.00;98.20;;;;;;5061246;28;21126;-71
2021/12/25 09:34:28;;;;;;;1.67;1.40;;;3.10;98.20;;;;;;5069415;28;20471;-71
2021/12/25 09:36:55;;;;;;;1.70;1.40;;;3.10;98.20;;;;;;5063371;28;20500;-71
2021/12/25 09:39:23;;;;;;;1.70;1.53;;;3.10;98.20;;;;;;5070329;28;20501;-71
2021/12/25 09:41:51;;;;;;;1.63;1.40;;;3.10;98.20;;;;;;5057027;28;21008;-71
2021/12/25 09:44:18;;;;;;;1.70;1.50;;;3.20;98.20;;;;;;5065542;28;20679;-71
2021/12/25 09:46:45;;;;;;;1.70;1.50;;;3.30;98.20;;;;;;5062600;28;20542;-71
2021/12/25 09:49:12;;;;;;;1.70;1.40;;;3.30;98.20;;;;;;5074366;28;20473;-71
2021/12/25 09:51:40;;;;;;;1.70;1.50;;;3.40;98.20;;;;;;5063137;28;20550;-71
2021/12/25 09:54:09;;;;;;;2.53;2.33;;;3.40;98.20;;;;;;5075104;28;20465;-71
2021/12/25 09:56:39;;;;;;;1.70;1.50;;;3.40;98.20;;;;;;5063612;28;20875;-71
2021/12/25 09:59:10;;;;;;;1.70;1.40;;;3.40;98.20;;;;;;5075789;28;20537;-71
2021/12/25 10:01:39;;;;;;;1.63;1.47;;;3.40;98.20;;;;;;5064155;28;20476;-71
2021/12/25 10:04:07;;;;;;;1.70;1.50;;;3.40;98.20;;;;;;5074749;28;20552;-71
2021/12/25 10:06:37;;;;;;;1.67;1.50;;;3.40;98.20;;;;;;5064064;28;21174;-71
2021/12/25 10:09:19;;;;;;;1.70;1.40;;;3.50;98.20;;;;;;5075932;28;20495;-71
2021/12/25 10:12:01;;;;;;;1.70;1.50;;;3.40;98.20;;;;;;5063748;28;20588;-71
2021/12/25 10:14:28;;;;;;;1.70;1.40;;;3.40;98.20;;;;;;5071354;28;20462;-71
2021/12/25 10:16:56;;;;;;;1.70;1.40;;;3.40;98.20;;;;;;5060739;28;20599;-71
2021/12/25 10:19:27;;;;;;;1.70;1.50;;;3.40;98.20;;;;;;5073301;28;20462;-71
2021/12/25 10:22:06;;;;;;;1.63;1.40;;;3.50;98.20;;;;;;5064252;28;20569;-71
2021/12/25 10:24:40;;;;;;;1.67;1.40;;;3.40;98.20;;;;;;5057936;28;20461;-71
2021/12/25 10:27:14;;;;;;;1.70;1.40;;;3.40;98.20;;;;;;5063475;28;20476;-71
2021/12/25 10:29:42;;;;;;;1.67;1.40;;;3.40;98.20;;;;;;5071380;28;20837;-72
2021/12/25 10:32:19;;;;;;;1.70;1.40;;;3.50;98.20;;;;;;5068845;28;20484;-72
2021/12/25 10:34:46;;;;;;;1.70;1.40;;;3.50;98.20;;;;;;5069833;28;20965;-72
2021/12/25 10:37:17;;;;;;;1.60;1.30;;;3.50;98.20;;;;;;5056430;28;20580;-72
2021/12/25 10:39:45;;;;;;;1.70;1.40;;;3.40;98.20;;;;;;5045799;28;20470;-72
2021/12/25 10:42:17;;;;;;;1.67;1.40;;;3.40;98.20;;;;;;5029329;28;20601;-71
2021/12/25 10:44:46;;;;;;;1.70;1.40;;;3.40;98.20;;;;;;5049574;28;20955;-72
2021/12/25 10:47:15;;;;;;;1.70;1.40;;;3.40;98.20;;;;;;5036493;28;20482;-73
2021/12/25 10:49:44;;;;;;;1.70;1.40;;;3.40;98.20;;;;;;5039920;28;20473;-73
2021/12/25 10:52:16;;;;;;;1.70;1.43;;;3.40;98.20;;;;;;5033917;28;20501;-73
2021/12/25 10:54:46;;;;;;;1.60;1.40;;;3.40;98.20;;;;;;5045469;28;20506;-74
2021/12/25 10:57:34;;;;;;;1.70;1.40;;;3.40;98.20;;;;;;5034948;28;20482;-74
2021/12/25 11:00:02;;;;;;;2.43;2.23;;;3.50;98.20;;;;;;5045159;28;20459;-73
2021/12/25 11:02:32;;;;;;;1.70;1.40;;;3.50;98.20;;;;;;5045486;28;20577;-74
2021/12/25 11:05:00;;;;;;;1.67;1.40;;;3.50;98.20;;;;;;5045406;28;20463;-73
2021/12/25 11:07:27;;;;;;;1.70;1.40;;;3.60;98.20;;;;;;5044205;28;20492;-72
2021/12/25 11:10:16;;;;;;;1.70;1.50;;;3.60;98.20;;;;;;5064558;28;20864;-72
2021/12/25 11:12:45;;;;;;;1.60;1.40;;;3.60;98.20;;;;;;5061758;28;20473;-73
2021/12/25 11:15:19;;;;;;;1.70;1.50;;;3.60;98.20;;;;;;5063095;28;20470;-73
2021/12/25 11:17:51;;;;;;;1.70;1.60;;;3.70;98.20;;;;;;5068984;28;20484;-73
2021/12/25 11:20:28;;;;;;;1.63;1.30;;;3.70;98.20;;;;;;5063939;28;20491;-73
2021/12/25 11:22:57;;;;;;;1.70;1.40;;;3.80;98.20;;;;;;5067904;28;20591;-73
2021/12/25 11:25:27;;;;;;;1.70;1.40;;;3.80;98.20;;;;;;5061027;28;20568;-73
2021/12/25 11:27:56;;;;;;;1.70;1.40;;;3.80;98.20;;;;;;5068249;28;20591;-72
2021/12/25 11:30:27;;;;;;;1.70;1.50;;;3.80;98.20;;;;;;5063859;28;20465;-73
2021/12/25 11:32:56;;;;;;;1.70;1.50;;;3.80;98.20;;;;;;5068097;28;20484;-72
2021/12/25 11:35:24;;;;;;;1.70;1.40;;;3.70;98.20;;;;;;5064474;28;20677;-72
2021/12/25 11:37:54;;;;;;;1.70;1.40;;;3.70;98.20;;;;;;5069956;28;20909;-75
2021/12/25 11:40:25;;;;;;;2.60;2.40;;;3.70;98.20;;;;;;5064064;28;20467;-73
2021/12/25 11:42:57;;;;;;;1.60;1.40;;;3.70;98.20;;;;;;5067626;28;20503;-73
2021/12/25 11:45:29;;;;;;;1.70;1.40;;;3.70;98.20;;;;;;5063031;28;20528;-73
2021/12/25 11:47:59;;;;;;;1.60;1.37;;;3.70;98.20;;;;;;5068018;28;20984;-74
2021/12/25 11:50:39;;;;;;;1.70;1.40;;;3.70;98.20;;;;;;5062471;28;20497;-74
2021/12/25 11:53:15;;;;;;;4.23;3.83;;;3.60;98.20;;;;;;5066481;28;20949;-75
2021/12/25 11:56:17;;;;;;;1.67;1.40;;;3.50;98.20;;;;;;5064402;28;20484;-73
2021/12/25 11:58:49;;;;;;;1.70;1.40;;;3.50;98.20;;;;;;5030683;28;20573;-73
2021/12/25 12:01:28;;;;;;;1.70;1.40;;;3.50;98.20;;;;;;5035540;28;20501;-73
2021/12/25 12:03:57;;;;;;;1.93;1.83;;;3.40;98.20;;;;;;5053226;28;20484;-74
2021/12/25 12:06:57;;;;;;;1.63;1.40;;;3.40;98.20;;;;;;5042478;28;20493;-75
2021/12/25 12:09:27;;;;;;;1.70;1.50;;;3.40;98.20;;;;;;5069069;28;20497;-73
2021/12/25 12:12:18;;;;;;;1.70;1.40;;;3.40;98.20;;;;;;5061209;28;20476;-74
2021/12/25 12:15:04;;;;;;;1.63;1.40;;;3.40;98.20;;;;;;5064657;28;20548;-73
2021/12/25 12:17:32;;;;;;;1.70;1.60;;;3.30;98.20;;;;;;5065419;28;20892;-74
2021/12/25 12:20:03;;;;;;;1.63;1.40;;;3.30;98.20;;;;;;5065572;28;20465;-74
2021/12/25 12:25:59;;;;;;;1.67;1.40;;;3.30;98.20;;;;;;5056326;28;20462;-73
2021/12/25 12:28:48;;;;;;;1.60;1.40;;;3.30;98.20;;;;;;5049785;28;20477;-72
2021/12/25 12:31:39;;;;;;;1.60;1.40;;;3.30;98.20;;;;;;5056233;28;20563;-72
2021/12/25 12:34:36;;;;;;;1.63;1.40;;;3.40;98.20;;;;;;5071589;28;20473;-74
2021/12/25 12:37:24;;;;;;;1.60;1.33;;;3.40;98.20;;;;;;5061035;28;20950;-75
2021/12/25 12:40:25;;;;;;;1.70;1.43;;;3.40;98.20;;;;;;5061382;28;20471;-74
2021/12/25 12:42:57;;;;;;;1.70;1.40;;;3.50;98.20;;;;;;5066619;28;20484;-75
2021/12/25 12:45:28;;;;;;;1.70;1.43;;;3.50;98.20;;;;;;5060899;28;20468;-73
2021/12/25 12:48:18;;;;;;;1.70;1.40;;;3.50;98.20;;;;;;5067630;28;20491;-74
2021/12/25 12:50:49;;;;;;;1.67;1.40;;;3.50;98.20;;;;;;5061952;28;20469;-74
2021/12/25 12:53:17;;;;;;;1.70;1.50;;;3.50;98.20;;;;;;5063563;28;20493;-73
2021/12/25 12:55:47;;;;;;;1.60;1.37;;;3.40;98.20;;;;;;5052271;28;20490;-73
2021/12/25 12:58:17;;;;;;;1.80;1.60;;;3.40;98.20;;;;;;5049948;28;20777;-73
2021/12/25 13:00:47;;;;;;;1.67;1.40;;;3.40;98.20;;;;;;5055817;28;20473;-74
2021/12/25 13:03:16;;;;;;;1.60;1.30;;;3.40;98.20;;;;;;5045886;28;20554;-74
2021/12/25 13:05:48;;;;;;;1.70;1.50;;;3.40;98.20;;;;;;5061588;28;20499;-74
2021/12/25 13:08:18;;;;;;;1.70;1.40;;;3.40;98.20;;;;;;5049231;28;20568;-73
2021/12/25 13:10:51;;;;;;;1.70;1.40;;;3.40;98.20;;;;;;5055962;28;20468;-73
2021/12/25 13:13:21;;;;;;;1.70;1.50;;;3.40;98.20;;;;;;5046577;28;20485;-73
2021/12/25 13:15:51;;;;;;;1.70;1.40;;;3.30;98.20;;;;;;5049205;28;20560;-73
2021/12/25 13:18:28;;;;;;;1.70;1.50;;;3.40;98.20;;;;;;5075934;28;20547;-73
2021/12/25 13:20:56;;;;;;;1.67;1.40;;;3.40;98.20;;;;;;5051381;28;20923;-72
2021/12/25 13:23:25;;;;;;;1.70;1.50;;;3.40;98.20;;;;;;5074194;28;20469;-73
2021/12/25 13:25:56;;;;;;;1.67;1.40;;;3.40;98.20;;;;;;5050420;28;20655;-72
2021/12/25 13:28:25;;;;;;;1.70;1.60;;;3.40;98.20;;;;;;5074789;28;20497;-73
2021/12/25 13:30:57;;;;;;;1.63;1.40;;;3.40;98.20;;;;;;5049822;28;20466;-75
2021/12/25 13:33:28;;;;;;;1.67;1.40;;;3.40;98.20;;;;;;5075303;28;20826;-75
2021/12/25 13:36:04;;;;;;;1.67;1.40;;;3.40;98.20;;;;;;5053697;28;20551;-73
2021/12/25 13:38:44;;;;;;;1.70;1.40;;;3.40;98.20;;;;;;5073928;28;20674;-76
2021/12/25 13:41:12;;;;;;;1.60;1.40;;;3.30;98.20;;;;;;5053513;28;21267;-73
2021/12/25 13:43:40;;;;;;;1.67;1.40;;;3.20;98.20;;;;;;5071817;28;20461;-74
2021/12/25 13:46:07;;;;;;;1.67;1.40;;;3.20;98.20;;;;;;5053923;28;20874;-75
2021/12/25 13:48:40;;;;;;;1.67;1.40;;;3.10;98.20;;;;;;5073549;28;20513;-77
2021/12/25 13:51:09;;;;;;;1.70;1.53;;;3.10;98.20;;;;;;5052825;28;20473;-75
2021/12/25 13:53:39;;;;;;;1.63;1.40;;;3.10;98.20;;;;;;5069349;28;20465;-75
2021/12/25 13:56:10;;;;;;;1.63;1.40;;;3.20;98.20;;;;;;5050213;28;20785;-72
2021/12/25 13:58:37;;;;;;;1.70;1.50;;;3.10;98.20;;;;;;5070761;28;20504;-74
2021/12/25 14:01:04;;;;;;;1.60;1.23;;;3.20;98.20;;;;;;5051602;28;20556;-74
2021/12/25 14:03:32;;;;;;;1.63;1.40;;;3.20;98.20;;;;;;5074196;28;20486;-74
2021/12/25 14:06:00;;;;;;;1.63;1.40;;;3.20;98.20;;;;;;5050818;28;20960;-74
2021/12/25 14:08:28;;;;;;;1.63;1.40;;;3.20;98.20;;;;;;5074120;28;21466;-76